Time;durP1;ratioP1;P1;durP2;ratioP2;P2;SDS_P1;SDS_P2;PMS_P1;PMS_P2;Temp;Humidity;BMP_temperature;BMP_pressure;BME280_temperature;BME280_humidity;BME280_pressure;Samples;Min_cycle;Max_cycle;Signal;HPM_P1;HPM_P2
2022/02/01 00:00:24;;;;;;;0.70;0.70;;;;;;;1.82;84.49;96859.25;29397;219;63009;-68
2022/02/01 00:01:22;;;;;;;0.80;0.80;;;;;;;1.84;84.47;96861.69;29376;218;63004;-65
2022/02/01 00:01:59;;;;;;;0.70;0.70;;;;;;;1.80;84.48;96866.69;29376;202;63009;-55
2022/02/01 00:02:51;;;;;;;0.60;0.60;;;;;;;1.82;84.45;96859.25;29376;247;63018;-66
2022/02/01 00:03:29;;;;;;;1.35;1.35;;;;;;;1.83;84.36;96871.59;29374;202;64008;-64
2022/02/01 00:04:05;;;;;;;0.70;0.70;;;;;;;1.84;84.48;96873.22;29376;216;63020;-61
2022/02/01 00:04:49;;;;;;;0.77;0.77;;;;;;;1.85;84.42;96863.31;29376;211;63009;-61
2022/02/01 00:05:30;;;;;;;0.70;0.70;;;;;;;1.84;84.00;96857.16;29376;197;63005;-60
2022/02/01 00:06:28;;;;;;;1.23;1.23;;;;;;;1.84;84.41;96870.53;29398;252;63009;-63
2022/02/01 00:07:22;;;;;;;0.70;0.70;;;;;;;1.81;84.63;96868.34;29397;227;63005;-70
2022/02/01 00:08:13;;;;;;;0.60;0.60;;;;;;;1.81;84.49;96872.88;29373;245;64025;-71
2022/02/01 00:09:12;;;;;;;0.70;0.70;;;;;;;1.82;84.36;96875.31;29376;259;63004;-66
2022/02/01 00:10:55;;;;;;;0.60;0.60;;;;;;;1.80;84.69;96882.75;29375;213;63013;-60
2022/02/01 00:13:39;;;;;;;0.75;0.75;;;;;;;1.80;85.08;96888.09;29375;214;63009;-64
2022/02/01 00:14:31;;;;;;;0.70;0.70;;;;;;;1.79;84.79;96881.13;29375;264;63005;-61
2022/02/01 00:20:36;;;;;;;0.60;0.60;;;;;;;1.72;85.66;96893.03;29375;199;63009;-69
2022/02/01 00:33:58;;;;;;;0.60;0.60;;;;;;;1.68;85.69;96911.41;29375;266;63008;-61
2022/02/01 00:35:04;;;;;;;0.60;0.60;;;;;;;1.70;85.41;96925.38;29375;208;63005;-58
2022/02/01 00:35:38;;;;;;;0.60;0.60;;;;;;;1.70;85.21;96914.66;29373;228;64009;-66
2022/02/01 00:37:22;;;;;;;0.60;0.60;;;;;;;1.71;85.22;96937.69;29375;206;63009;-66
2022/02/01 00:38:01;;;;;;;0.70;0.70;;;;;;;1.69;85.23;96929.09;29375;256;63004;-64
2022/02/01 00:38:40;;;;;;;0.60;0.60;;;;;;;1.69;85.36;96939.78;29375;255;63009;-58
2022/02/01 00:39:14;;;;;;;0.60;0.60;;;;;;;1.69;85.27;96934.44;29375;222;63004;-65
2022/02/01 00:39:46;;;;;;;0.60;0.60;;;;;;;1.68;85.63;96932.81;29375;225;63009;-64
2022/02/01 00:40:18;;;;;;;0.80;0.80;;;;;;;1.67;85.34;96937.34;29375;216;63004;-65
2022/02/01 00:40:55;;;;;;;0.70;0.70;;;;;;;1.67;85.50;96939.22;29375;234;63008;-64
2022/02/01 00:41:31;;;;;;;0.60;0.60;;;;;;;1.67;85.25;96947.25;29373;235;64017;-60
2022/02/01 00:42:03;;;;;;;0.65;0.65;;;;;;;1.68;85.57;96946.19;29375;215;63009;-58
2022/02/01 00:42:34;;;;;;;0.60;0.60;;;;;;;1.68;85.26;96944.31;29375;226;63005;-62
2022/02/01 00:43:07;;;;;;;0.65;0.65;;;;;;;1.69;85.47;96939.78;29375;228;63009;-64
2022/02/01 00:43:38;;;;;;;0.60;0.60;;;;;;;1.70;85.51;96946.78;29373;204;64005;-65
2022/02/01 00:44:09;;;;;;;0.60;0.60;;;;;;;1.70;85.61;96946.78;29375;210;63009;-61
2022/02/01 00:44:41;;;;;;;0.60;0.60;;;;;;;1.70;85.43;96945.97;29373;226;64005;-59
2022/02/01 00:45:13;;;;;;;0.70;0.70;;;;;;;1.69;85.38;96939.78;29375;240;63009;-63
2022/02/01 00:45:47;;;;;;;0.70;0.70;;;;;;;1.70;85.35;96941.41;29375;212;63004;-67
2022/02/01 00:46:20;;;;;;;0.70;0.70;;;;;;;1.70;85.65;96946.78;29375;236;63009;-61
2022/02/01 00:46:51;;;;;;;0.60;0.60;;;;;;;1.68;85.71;96948.88;29373;240;64004;-64
2022/02/01 00:47:22;;;;;;;0.90;0.90;;;;;;;1.69;85.76;96950.50;29375;253;63009;-64
2022/02/01 00:47:55;;;;;;;0.60;0.60;;;;;;;1.66;85.67;96945.59;29375;202;63004;-67
2022/02/01 00:48:27;;;;;;;1.10;1.10;;;;;;;1.67;85.99;96944.56;29375;211;63008;-60
2022/02/01 00:48:58;;;;;;;0.60;0.60;;;;;;;1.65;86.02;96941.31;29375;238;63005;-62
2022/02/01 00:49:32;;;;;;;0.62;0.62;;;;;;;1.65;86.22;96949.34;29373;259;64009;-68
2022/02/01 00:50:04;;;;;;;0.60;0.60;;;;;;;1.63;86.24;96943.41;29373;202;64005;-65
2022/02/01 00:50:39;;;;;;;0.60;0.60;;;;;;;1.62;86.46;96952.47;29375;222;63009;-68
2022/02/01 00:51:12;;;;;;;0.60;0.60;;;;;;;1.62;86.20;96949.78;29375;219;63005;-65
2022/02/01 00:51:44;;;;;;;0.60;0.60;;;;;;;1.63;86.26;96951.44;29375;254;63009;-61
2022/02/01 00:52:15;;;;;;;0.60;0.60;;;;;;;1.63;86.29;96948.75;29375;220;63005;-54
2022/02/01 00:52:47;;;;;;;0.60;0.60;;;;;;;1.63;86.69;96946.06;29375;196;63009;-70
2022/02/01 00:53:22;;;;;;;0.60;0.60;;;;;;;1.60;86.68;96946.53;29375;204;63004;-67
2022/02/01 00:53:54;;;;;;;4.03;1.45;;;;;;;1.61;86.54;96948.16;29375;296;63009;-64
2022/02/01 00:54:25;;;;;;;0.60;0.60;;;;;;;1.59;86.50;96951.06;29375;197;63004;-64
2022/02/01 00:54:57;;;;;;;0.80;0.80;;;;;;;1.60;87.00;96946.53;29375;214;63009;-66
2022/02/01 00:55:28;;;;;;;0.60;0.60;;;;;;;1.59;87.02;96955.62;29373;196;64004;-64
2022/02/01 00:55:59;;;;;;;0.60;0.60;;;;;;;1.56;87.03;96956.06;29375;317;63008;-66
2022/02/01 00:56:31;;;;;;;0.60;0.60;;;;;;;1.55;86.90;96954.44;29375;236;63005;-67
2022/02/01 00:57:03;;;;;;;0.60;0.60;;;;;;;1.54;87.25;96956.31;29375;211;63029;-68
2022/02/01 00:57:34;;;;;;;0.60;0.60;;;;;;;1.53;86.70;96954.69;29374;204;63005;-66
2022/02/01 00:58:06;;;;;;;0.60;0.60;;;;;;;1.54;86.92;96958.16;29375;213;63009;-63
2022/02/01 00:58:38;;;;;;;0.60;0.60;;;;;;;1.53;86.93;96949.34;29375;210;63005;-66
2022/02/01 00:59:10;;;;;;;0.60;0.60;;;;;;;1.51;87.11;96964.78;29375;231;63009;-69
2022/02/01 00:59:43;;;;;;;0.60;0.60;;;;;;;1.48;87.23;96959.09;29372;215;64004;-70
2022/02/01 01:00:15;;;;;;;0.60;0.60;;;;;;;1.45;87.57;96951.53;29375;250;63009;-63
2022/02/01 01:00:48;;;;;;;0.60;0.60;;;;;;;1.43;87.70;96951.78;29375;215;63004;-72
2022/02/01 01:01:19;;;;;;;0.60;0.60;;;;;;;1.43;87.66;96956.31;29373;221;63009;-66
2022/02/01 01:01:50;;;;;;;0.60;0.60;;;;;;;1.43;87.29;96965.16;29373;242;63004;-72
2022/02/01 01:02:21;;;;;;;0.60;0.60;;;;;;;1.41;87.47;96963.75;29373;251;63008;-65
2022/02/01 01:02:53;;;;;;;0.60;0.60;;;;;;;1.41;87.37;96969.91;29374;231;63004;-68
2022/02/01 01:03:24;;;;;;;0.60;0.60;;;;;;;1.40;87.68;96956.78;29371;237;64008;-66
2022/02/01 01:03:55;;;;;;;0.60;0.60;;;;;;;1.38;87.75;96970.41;29373;218;63016;-55
2022/02/01 01:04:26;;;;;;;0.60;0.60;;;;;;;1.38;87.87;96970.41;29373;226;63009;-62
2022/02/01 01:04:58;;;;;;;0.60;0.60;;;;;;;1.37;87.82;96970.62;29373;210;63005;-67
2022/02/01 01:05:30;;;;;;;0.60;0.60;;;;;;;1.33;87.68;96968.41;29371;218;64009;-70
2022/02/01 01:06:01;;;;;;;0.60;0.60;;;;;;;1.31;87.74;96977.72;29373;203;63005;-64
2022/02/01 01:06:33;;;;;;;0.60;0.60;;;;;;;1.31;88.03;96973.19;29373;218;63009;-66
2022/02/01 01:07:05;;;;;;;0.60;0.60;;;;;;;1.33;87.99;96976.44;29373;218;63005;-65
2022/02/01 01:07:36;;;;;;;0.60;0.60;;;;;;;1.31;87.82;96980.38;29373;205;63009;-63
2022/02/01 01:08:08;;;;;;;0.60;0.60;;;;;;;1.31;87.84;96975.84;29371;208;64004;-62
2022/02/01 01:08:40;;;;;;;0.60;0.60;;;;;;;1.32;88.16;96982.00;29373;203;63009;-60
2022/02/01 01:09:12;;;;;;;0.60;0.60;;;;;;;1.31;87.68;96986.56;29373;206;63004;-59
2022/02/01 01:09:43;;;;;;;0.70;0.70;;;;;;;1.28;87.78;96972.84;29373;219;63009;-63
2022/02/01 01:10:14;;;;;;;0.60;0.60;;;;;;;1.26;87.70;96978.41;29373;224;63004;-74
2022/02/01 01:10:46;;;;;;;0.60;0.60;;;;;;;1.24;87.78;96980.50;29373;206;63009;-65
2022/02/01 01:11:17;;;;;;;0.60;0.60;;;;;;;1.26;87.77;96983.75;29373;203;63005;-62
2022/02/01 01:11:53;;;;;;;0.60;0.60;;;;;;;1.27;88.12;96990.72;29373;216;63009;-65
2022/02/01 01:12:27;;;;;;;0.60;0.60;;;;;;;1.25;87.98;96995.50;29373;217;63005;-58
2022/02/01 01:13:20;;;;;;;1.17;1.17;;;;;;;1.25;88.08;96994.69;29373;223;63027;-62
2022/02/01 01:15:10;;;;;;;0.80;0.80;;;;;;;1.25;88.00;96986.66;29395;199;63009;-64
2022/02/01 01:15:50;;;;;;;0.60;0.60;;;;;;;1.23;87.85;96994.91;29395;202;63004;-65
2022/02/01 01:18:30;;;;;;;0.70;0.70;;;;;;;1.22;88.23;96993.28;29373;218;63008;-64
2022/02/01 01:44:27;;;;;;;0.60;0.60;;;;;;;1.54;86.01;96995.59;29373;209;63005;-64
2022/02/01 01:45:12;;;;;;;0.60;0.60;;;;;;;1.55;85.61;96999.91;29373;260;63009;-69
2022/02/01 01:46:18;;;;;;;0.60;0.60;;;;;;;1.54;85.58;96998.28;29373;225;63004;-65
2022/02/01 01:53:18;;;;;;;1.33;0.73;;;;;;;1.61;84.67;97013.16;29373;250;63009;-68
2022/02/01 01:53:49;;;;;;;0.68;0.68;;;;;;;1.61;84.84;97002.47;29373;251;63004;-63
2022/02/01 01:54:22;;;;;;;0.60;0.60;;;;;;;1.62;85.18;97005.97;29373;199;63009;-67
2022/02/01 01:54:54;;;;;;;0.60;0.60;;;;;;;1.63;85.30;97010.25;29373;221;63014;-71
2022/02/01 01:55:25;;;;;;;0.60;0.60;;;;;;;1.60;85.29;97010.72;29373;211;63008;-58
2022/02/01 01:55:56;;;;;;;0.60;0.60;;;;;;;1.60;85.39;97000.03;29373;258;63005;-53
2022/02/01 01:56:30;;;;;;;0.60;0.60;;;;;;;1.59;85.53;96999.22;29371;226;64009;-65
2022/02/01 01:57:02;;;;;;;0.70;0.70;;;;;;;1.61;85.61;96996.31;29371;218;64005;-56
2022/02/01 01:57:34;;;;;;;0.75;0.75;;;;;;;1.61;85.70;97001.66;29373;246;63009;-61
2022/02/01 01:58:06;;;;;;;0.70;0.70;;;;;;;1.61;85.62;97012.34;29373;245;63005;-64
2022/02/01 01:58:38;;;;;;;0.70;0.70;;;;;;;1.59;85.31;97003.75;29373;198;63009;-74
2022/02/01 01:59:10;;;;;;;0.65;0.65;;;;;;;1.60;85.25;97013.41;29373;249;63005;-61
2022/02/01 01:59:42;;;;;;;0.80;0.80;;;;;;;1.61;85.75;97007.00;29373;231;63009;-55
2022/02/01 02:01:48;;;;;;;0.60;0.60;;;;;;;1.58;85.70;97021.66;29373;243;63004;-63
2022/02/01 02:02:19;;;;;;;0.60;0.60;;;;;;;1.59;85.65;97011.78;29373;223;63009;-56
2022/02/01 02:02:50;;;;;;;0.60;0.60;;;;;;;1.60;85.33;97026.78;29373;274;63004;-66
2022/02/01 02:03:22;;;;;;;0.60;0.60;;;;;;;1.61;85.62;97023.06;29373;239;63008;-66
2022/02/01 02:03:53;;;;;;;0.80;0.80;;;;;;;1.61;85.31;97023.06;29373;245;63005;-69
2022/02/01 02:04:25;;;;;;;0.62;0.62;;;;;;;1.59;85.01;97025.16;29371;202;64009;-61
2022/02/01 02:04:56;;;;;;;0.93;0.90;;;;;;;1.60;85.00;97026.78;29373;203;63005;-71
2022/02/01 02:05:30;;;;;;;0.60;0.60;;;;;;;1.61;85.30;97020.37;29372;205;64009;-68
2022/02/01 02:06:02;;;;;;;0.60;0.60;;;;;;;1.62;85.02;97030.03;29373;259;63005;-64
2022/02/01 02:06:34;;;;;;;0.60;0.60;;;;;;;1.60;85.14;97019.56;29373;227;63009;-54
2022/02/01 02:07:05;;;;;;;0.70;0.70;;;;;;;1.61;85.08;97029.22;29373;252;63004;-67
2022/02/01 02:07:36;;;;;;;0.60;0.60;;;;;;;1.62;85.21;97032.72;29373;222;63009;-68
2022/02/01 02:08:08;;;;;;;1.60;1.50;;;;;;;1.61;85.26;97031.09;29373;247;63004;-60
2022/02/01 02:08:43;;;;;;;0.60;0.60;;;;;;;1.61;85.19;97028.41;29373;247;63009;-66
2022/02/01 02:09:15;;;;;;;0.60;0.60;;;;;;;1.61;85.22;97028.41;29373;203;63004;-55
2022/02/01 02:09:46;;;;;;;0.60;0.60;;;;;;;1.60;85.45;97026.78;29371;246;64008;-68
2022/02/01 02:10:18;;;;;;;0.60;0.60;;;;;;;1.59;85.56;97030.50;29373;229;63004;-55
2022/02/01 02:11:03;;;;;;;0.60;0.60;;;;;;;1.59;85.73;97030.50;29373;222;63008;-61
2022/02/01 02:12:52;;;;;;;0.80;0.80;;;;;;;1.60;85.21;97046.31;29373;225;63009;-69
2022/02/01 02:14:21;;;;;;;6.45;4.57;;;;;;;1.58;85.23;97050.25;29393;252;64009;-71
2022/02/01 02:14:53;;;;;;;0.60;0.60;;;;;;;1.60;85.37;97042.81;29394;248;64004;-64
2022/02/01 02:15:35;;;;;;;0.60;0.60;;;;;;;1.59;85.61;97046.53;29373;241;63009;-62
2022/02/01 02:16:06;;;;;;;0.60;0.60;;;;;;;1.60;85.29;97040.16;29373;198;63007;-64
2022/02/01 02:16:38;;;;;;;0.70;0.70;;;;;;;1.58;85.57;97042.25;29373;197;63009;-67
2022/02/01 02:17:10;;;;;;;1.70;1.60;;;;;;;1.57;85.46;97045.97;29373;230;63004;-74
2022/02/01 02:17:41;;;;;;;3.40;0.82;;;;;;;1.57;85.70;97035.25;29373;204;63008;-68
2022/02/01 02:18:12;;;;;;;0.90;0.90;;;;;;;1.58;85.31;97040.38;29373;225;63005;-62
2022/02/01 02:18:45;;;;;;;0.60;0.60;;;;;;;1.58;85.54;97031.53;29373;199;63009;-68
2022/02/01 02:19:17;;;;;;;0.80;0.80;;;;;;;1.58;85.28;97026.19;29373;215;63005;-59
2022/02/01 02:19:48;;;;;;;0.82;0.82;;;;;;;1.58;85.59;97026.19;29371;230;64009;-67
2022/02/01 02:20:20;;;;;;;0.70;0.70;;;;;;;1.57;85.40;97016.53;29373;203;63010;-66
2022/02/01 02:20:54;;;;;;;0.73;0.70;;;;;;;1.56;85.72;97021.06;29373;226;63009;-60
2022/02/01 02:21:25;;;;;;;0.82;0.82;;;;;;;1.57;85.73;97021.87;29373;299;63005;-64
2022/02/01 02:21:59;;;;;;;0.93;0.80;;;;;;;1.55;85.70;97032.00;29373;262;63009;-75
2022/02/01 02:22:30;;;;;;;1.23;1.00;;;;;;;1.54;85.68;97030.38;29373;248;63004;-66
2022/02/01 02:23:01;;;;;;;0.70;0.70;;;;;;;1.54;85.65;97025.03;29373;297;63009;-62
2022/02/01 02:23:33;;;;;;;0.70;0.70;;;;;;;1.51;85.58;97017.47;29373;238;63009;-68
2022/02/01 02:24:06;;;;;;;0.88;0.88;;;;;;;1.53;85.70;97023.41;29373;240;63023;-62
2022/02/01 02:24:41;;;;;;;1.65;1.12;;;;;;;1.54;85.96;97022.34;29373;250;63004;-61
2022/02/01 02:25:14;;;;;;;0.60;0.60;;;;;;;1.53;86.03;97020.72;29371;202;64008;-53
2022/02/01 02:25:47;;;;;;;0.60;0.60;;;;;;;1.51;86.41;97022.81;29373;203;63005;-63
2022/02/01 02:26:18;;;;;;;0.70;0.70;;;;;;;1.50;86.59;97029.22;29373;254;63009;-69
2022/02/01 02:26:50;;;;;;;0.85;0.85;;;;;;;1.49;86.16;97030.25;29373;223;63005;-63
2022/02/01 02:27:22;;;;;;;0.68;0.68;;;;;;;1.48;86.36;97029.44;29373;252;63009;-57
2022/02/01 02:27:54;;;;;;;1.02;1.02;;;;;;;1.45;86.47;97037.09;29373;247;63005;-63
2022/02/01 02:28:25;;;;;;;0.60;0.60;;;;;;;1.44;86.79;97043.50;29373;240;63009;-62
2022/02/01 02:28:59;;;;;;;0.70;0.70;;;;;;;1.45;86.58;97047.81;29373;243;63005;-67
2022/02/01 02:29:30;;;;;;;0.70;0.70;;;;;;;1.44;86.59;97059.53;29371;224;64009;-68
2022/02/01 02:30:02;;;;;;;0.70;0.70;;;;;;;1.44;86.83;97059.53;29373;206;63004;-61
2022/02/01 02:30:34;;;;;;;0.60;0.60;;;;;;;1.44;86.73;97056.88;29371;243;64009;-67
2022/02/01 02:31:05;;;;;;;0.60;0.60;;;;;;;1.45;87.16;97061.16;29373;226;63004;-61
2022/02/01 02:31:40;;;;;;;0.70;0.70;;;;;;;1.42;86.79;97051.75;29371;199;64009;-59
2022/02/01 02:32:11;;;;;;;0.70;0.70;;;;;;;1.43;86.95;97063.25;29373;211;63004;-59
2022/02/01 02:32:44;;;;;;;0.65;0.65;;;;;;;1.42;87.22;97064.31;29371;214;64008;-65
2022/02/01 02:33:17;;;;;;;0.60;0.60;;;;;;;1.40;86.92;97059.19;29373;202;63007;-66
2022/02/01 02:33:56;;;;;;;0.60;0.60;;;;;;;1.40;87.11;97061.03;29373;219;63009;-63
2022/02/01 02:34:31;;;;;;;0.60;0.60;;;;;;;1.40;87.02;97074.41;29373;211;63005;-62
2022/02/01 02:35:04;;;;;;;0.60;0.60;;;;;;;1.40;87.35;97067.19;29373;235;63009;-53
2022/02/01 02:35:36;;;;;;;0.60;0.60;;;;;;;1.38;87.60;97084.53;29373;257;63005;-61
2022/02/01 02:36:16;;;;;;;0.60;0.60;;;;;;;1.36;87.72;97067.91;29373;204;63005;-70
2022/02/01 02:36:59;;;;;;;0.70;0.70;;;;;;;1.38;87.40;97071.19;29373;212;63005;-69
2022/02/01 02:37:32;;;;;;;0.60;0.60;;;;;;;1.37;87.66;97074.91;29373;211;63009;-63
2022/02/01 02:38:09;;;;;;;0.62;0.62;;;;;;;1.37;87.56;97077.56;29371;216;64004;-64
2022/02/01 02:39:45;;;;;;;0.60;0.60;;;;;;;1.34;87.69;97071.63;29395;222;63015;-62
2022/02/01 02:40:33;;;;;;;0.62;0.62;;;;;;;1.34;87.79;97079.66;29395;223;63008;-57
2022/02/01 02:41:29;;;;;;;0.70;0.70;;;;;;;1.36;87.20;97078.62;29373;259;63005;-59
2022/02/01 02:45:05;;;;;;;0.70;0.70;;;;;;;1.36;87.01;97083.97;29373;220;63004;-58
2022/02/01 02:45:36;;;;;;;0.70;0.70;;;;;;;1.37;87.32;97082.91;29373;249;63026;-58
2022/02/01 02:46:07;;;;;;;0.70;0.70;;;;;;;1.37;87.02;97074.91;29373;232;63004;-56
2022/02/01 02:46:40;;;;;;;0.70;0.70;;;;;;;1.39;87.22;97083.50;29373;305;63009;-78
2022/02/01 02:47:12;;;;;;;0.60;0.60;;;;;;;1.36;87.11;97084.78;29373;250;63004;-67
2022/02/01 02:47:43;;;;;;;0.70;0.70;;;;;;;1.36;87.31;97083.97;29373;317;63008;-55
2022/02/01 02:48:14;;;;;;;0.68;0.68;;;;;;;1.38;86.83;97087.22;29373;197;63005;-56
2022/02/01 02:48:47;;;;;;;0.65;0.65;;;;;;;1.39;87.27;97083.50;29373;291;63009;-59
2022/02/01 02:49:21;;;;;;;0.70;0.70;;;;;;;1.39;87.21;97083.50;29371;232;64005;-60
2022/02/01 02:49:54;;;;;;;0.60;0.60;;;;;;;1.33;87.42;97080.69;29373;300;63009;-55
2022/02/01 02:50:26;;;;;;;0.70;0.70;;;;;;;1.32;87.39;97087.09;29373;299;63005;-58
2022/02/01 02:50:57;;;;;;;0.70;0.70;;;;;;;1.36;87.25;97086.62;29373;228;63016;-66
2022/02/01 02:51:28;;;;;;;0.70;0.70;;;;;;;1.33;87.38;97088.72;29373;237;63005;-63
2022/02/01 02:52:00;;;;;;;0.62;0.62;;;;;;;1.37;87.38;97081.06;29373;244;63009;-61
2022/02/01 02:52:31;;;;;;;0.65;0.65;;;;;;;1.36;87.22;97081.28;29373;307;63004;-63
2022/02/01 02:53:02;;;;;;;0.90;0.90;;;;;;;1.36;87.11;97083.97;29372;264;63009;-52
2022/02/01 02:53:33;;;;;;;0.70;0.70;;;;;;;1.38;86.85;97081.87;29373;269;63004;-61
2022/02/01 02:54:10;;;;;;;0.60;0.60;;;;;;;1.37;86.71;97086.41;29373;238;63009;-55
2022/02/01 02:54:41;;;;;;;0.70;0.70;;;;;;;1.38;87.00;97087.22;29371;215;64004;-53
2022/02/01 02:55:12;;;;;;;0.60;0.60;;;;;;;1.36;87.00;97094.66;29371;214;64008;-65
2022/02/01 02:55:44;;;;;;;0.70;0.70;;;;;;;1.36;86.97;97095.47;29373;219;63005;-66
2022/02/01 02:56:16;;;;;;;0.70;0.70;;;;;;;1.37;86.87;97102.44;29373;226;63009;-58
2022/02/01 02:56:53;;;;;;;0.60;0.60;;;;;;;1.37;86.71;97101.62;29373;263;63005;-68
2022/02/01 02:57:25;;;;;;;0.60;0.60;;;;;;;1.37;86.67;97115.00;29373;230;63009;-56
2022/02/01 02:57:59;;;;;;;0.60;0.60;;;;;;;1.37;86.92;97109.66;29373;308;63005;-69
2022/02/01 02:58:31;;;;;;;0.70;0.70;;;;;;;1.37;87.13;97096.28;29373;226;63009;-57
2022/02/01 02:59:04;;;;;;;0.60;0.60;;;;;;;1.36;86.88;97114.19;29373;225;63000;-62
2022/02/01 02:59:36;;;;;;;1.00;1.00;;;;;;;1.36;87.24;97119.53;29373;199;63009;-60
2022/02/01 03:00:09;;;;;;;0.60;0.60;;;;;;;1.33;87.36;97112.78;29371;258;64015;-64
2022/02/01 03:00:40;;;;;;;0.68;0.68;;;;;;;1.33;87.28;97118.13;29373;199;63009;-74
2022/02/01 03:01:11;;;;;;;0.70;0.70;;;;;;;1.34;87.00;97121.63;29373;227;63004;-63
2022/02/01 03:01:47;;;;;;;0.70;0.70;;;;;;;1.32;86.86;97113.81;29373;207;63009;-63
2022/02/01 03:02:18;;;;;;;1.20;1.02;;;;;;;1.36;87.01;97126.72;29373;207;63004;-59
2022/02/01 03:02:50;;;;;;;0.70;0.70;;;;;;;1.36;86.66;97095.47;29371;222;64008;-57
2022/02/01 03:03:21;;;;;;;0.70;0.70;;;;;;;1.36;86.55;97114.19;29373;224;63001;-61
2022/02/01 03:03:52;;;;;;;1.05;1.05;;;;;;;1.34;86.63;97114.41;29373;234;63009;-65
2022/02/01 03:04:27;;;;;;;0.60;0.60;;;;;;;1.36;86.52;97116.03;29373;212;63005;-61
2022/02/01 03:04:59;;;;;;;0.70;0.70;;;;;;;1.36;86.61;97121.38;29373;257;63009;-67
2022/02/01 03:05:30;;;;;;;0.60;0.60;;;;;;;1.36;86.74;97116.03;29373;258;63005;-62
2022/02/01 03:06:08;;;;;;;0.70;0.70;;;;;;;1.34;86.47;97119.75;29371;211;64009;-57
2022/02/01 03:06:39;;;;;;;0.80;0.80;;;;;;;1.34;86.18;97118.94;29373;217;63005;-63
2022/02/01 03:07:12;;;;;;;0.90;0.90;;;;;;;1.34;86.51;97119.75;29373;262;63009;-57
2022/02/01 03:07:43;;;;;;;0.60;0.60;;;;;;;1.33;86.05;97123.47;29373;252;63004;-57
2022/02/01 03:08:14;;;;;;;1.02;0.90;;;;;;;1.33;86.55;97123.47;29373;268;63018;-64
2022/02/01 03:08:46;;;;;;;1.40;1.08;;;;;;;1.34;86.59;97119.75;29373;241;63004;-53
2022/02/01 03:09:19;;;;;;;0.60;0.60;;;;;;;1.33;86.79;97115.44;29373;205;63009;-61
2022/02/01 03:09:51;;;;;;;0.60;0.60;;;;;;;1.31;86.49;97109.53;29373;232;63004;-55
2022/02/01 03:10:23;;;;;;;0.70;0.70;;;;;;;1.33;86.59;97107.44;29371;224;64008;-57
2022/02/01 03:10:55;;;;;;;0.60;0.60;;;;;;;1.33;86.06;97107.44;29373;214;63005;-60
2022/02/01 03:11:29;;;;;;;0.70;0.70;;;;;;;1.35;86.37;97109.88;29373;236;63009;-62
2022/02/01 03:12:04;;;;;;;0.60;0.60;;;;;;;1.35;85.94;97099.19;29373;222;63005;-64
2022/02/01 03:13:43;;;;;;;0.60;0.60;;;;;;;1.33;85.87;97103.94;29373;202;63005;-74
2022/02/01 03:14:41;;;;;;;0.60;0.60;;;;;;;1.33;86.30;97099.41;29373;211;63009;-61
2022/02/01 03:16:34;;;;;;;0.62;0.62;;;;;;;1.33;86.13;97102.09;29373;202;63009;-57
2022/02/01 03:20:39;;;;;;;0.60;0.60;;;;;;;1.36;84.83;97114.19;29371;243;64005;-59
2022/02/01 03:21:11;;;;;;;0.70;0.70;;;;;;;1.35;84.71;97093.84;29371;214;64009;-68
2022/02/01 03:21:42;;;;;;;0.90;0.90;;;;;;;1.36;84.39;97105.34;29373;198;63004;-60
2022/02/01 03:22:13;;;;;;;1.95;0.82;;;;;;;1.34;84.17;97102.91;29373;214;63009;-62
2022/02/01 03:22:44;;;;;;;0.68;0.68;;;;;;;1.36;84.17;97100.00;29373;197;63004;-68
2022/02/01 03:23:15;;;;;;;0.60;0.60;;;;;;;1.38;84.49;97113.97;29373;223;63009;-59
2022/02/01 03:23:48;;;;;;;0.60;0.60;;;;;;;1.37;84.45;97107.78;29373;207;63004;-57
2022/02/01 03:24:19;;;;;;;0.60;0.60;;;;;;;1.37;84.23;97105.13;29373;249;63008;-65
2022/02/01 03:24:52;;;;;;;0.70;0.70;;;;;;;1.37;84.38;97101.62;29373;208;63005;-56
2022/02/01 03:25:23;;;;;;;0.60;0.60;;;;;;;1.38;84.49;97097.91;29373;227;63009;-61
2022/02/01 03:25:54;;;;;;;0.60;0.60;;;;;;;1.38;84.17;97104.06;29373;204;63005;-56
2022/02/01 03:26:26;;;;;;;0.60;0.60;;;;;;;1.39;84.34;97099.53;29371;198;64009;-59
2022/02/01 03:26:57;;;;;;;0.70;0.70;;;;;;;1.38;84.38;97092.56;29373;209;63005;-62
2022/02/01 03:27:28;;;;;;;0.70;0.70;;;;;;;1.39;84.32;97104.87;29373;235;63009;-58
2022/02/01 03:27:59;;;;;;;0.70;0.70;;;;;;;1.41;84.00;97110.78;29371;224;64005;-56
2022/02/01 03:28:31;;;;;;;0.60;0.60;;;;;;;1.40;84.20;97104.63;29373;226;63009;-61
2022/02/01 03:29:03;;;;;;;0.60;0.60;;;;;;;1.40;83.94;97095.78;29373;234;63004;-62
2022/02/01 03:29:35;;;;;;;0.60;0.60;;;;;;;1.40;84.37;97101.97;29373;221;63009;-64
2022/02/01 03:30:10;;;;;;;0.70;0.70;;;;;;;1.40;84.25;97107.31;29373;206;63004;-62
2022/02/01 03:30:42;;;;;;;0.60;0.60;;;;;;;1.40;84.02;97117.19;29373;243;63009;-65
2022/02/01 03:31:13;;;;;;;0.60;0.60;;;;;;;1.41;83.71;97110.78;29373;236;63004;-62
2022/02/01 03:31:44;;;;;;;0.70;0.70;;;;;;;1.42;83.98;97112.44;29372;209;64008;-62
2022/02/01 03:32:16;;;;;;;1.27;1.25;;;;;;;1.42;83.75;97110.56;29373;217;63004;-63
2022/02/01 03:32:48;;;;;;;0.60;0.60;;;;;;;1.43;83.68;97101.50;29373;198;63009;-64
2022/02/01 03:33:19;;;;;;;0.70;0.70;;;;;;;1.44;83.56;97107.66;29373;254;63005;-63
2022/02/01 03:33:51;;;;;;;1.30;1.15;;;;;;;1.44;83.91;97107.66;29373;200;63009;-58
2022/02/01 03:34:22;;;;;;;0.70;0.70;;;;;;;1.43;83.85;97106.03;29373;216;63005;-64
2022/02/01 03:34:54;;;;;;;0.60;0.60;;;;;;;1.41;84.29;97110.78;29373;289;63009;-63
2022/02/01 03:35:26;;;;;;;0.60;0.60;;;;;;;1.42;84.26;97120.44;29372;219;64005;-60
2022/02/01 03:35:57;;;;;;;0.60;0.60;;;;;;;1.42;84.31;97120.44;29373;204;63009;-51
2022/02/01 03:36:29;;;;;;;0.60;0.60;;;;;;;1.40;84.30;97122.53;29373;203;63017;-61
2022/02/01 03:37:04;;;;;;;1.05;1.05;;;;;;;1.39;84.21;97127.06;29371;224;64009;-63
2022/02/01 03:37:36;;;;;;;0.60;0.60;;;;;;;1.37;84.49;97128.37;29373;212;63004;-58
2022/02/01 03:38:07;;;;;;;0.70;0.70;;;;;;;1.35;84.69;97131.25;29373;197;63015;-66
2022/02/01 03:38:38;;;;;;;0.60;0.60;;;;;;;1.35;84.75;97125.91;29374;227;63004;-57
2022/02/01 03:39:11;;;;;;;0.60;0.60;;;;;;;1.37;84.85;97133.72;29373;241;63008;-58
2022/02/01 03:39:45;;;;;;;0.60;0.60;;;;;;;1.38;84.63;97135.34;29373;218;63004;-64
2022/02/01 03:40:19;;;;;;;0.60;0.60;;;;;;;1.33;84.69;97128.81;29373;197;63009;-62
2022/02/01 03:40:51;;;;;;;0.93;0.93;;;;;;;1.34;84.23;97135.78;29373;233;63005;-61
2022/02/01 03:41:22;;;;;;;0.60;0.60;;;;;;;1.33;84.66;97139.50;29373;202;63009;-54
2022/02/01 03:41:54;;;;;;;0.60;0.60;;;;;;;1.31;84.62;97130.09;29371;284;64005;-67
2022/02/01 03:42:26;;;;;;;0.70;0.70;;;;;;;1.33;85.06;97123.47;29371;283;64009;-62
2022/02/01 03:42:58;;;;;;;0.60;0.60;;;;;;;1.33;84.75;97128.81;29373;248;63005;-67
2022/02/01 03:43:29;;;;;;;0.60;0.60;;;;;;;1.32;84.67;97132.53;29373;306;63009;-66
2022/02/01 03:44:03;;;;;;;0.60;0.60;;;;;;;1.31;84.74;97138.94;29373;222;63005;-74
2022/02/01 03:44:35;;;;;;;0.60;0.60;;;;;;;1.29;84.96;97130.31;29371;202;64009;-65
2022/02/01 03:45:07;;;;;;;0.60;0.60;;;;;;;1.29;84.55;97132.19;29373;205;63004;-64
2022/02/01 03:45:41;;;;;;;0.70;0.70;;;;;;;1.28;84.94;97136.72;29373;258;63009;-59
2022/02/01 03:46:13;;;;;;;0.60;0.60;;;;;;;1.29;84.63;97133.00;29373;319;63004;-76
2022/02/01 03:46:55;;;;;;;0.60;0.60;;;;;;;1.27;84.89;97140.41;29371;225;64008;-61
2022/02/01 03:47:27;;;;;;;;;;;;;;;1.29;85.19;97141.00;29974;983;28000;-60
2022/02/01 03:48:01;;;;;;;0.70;0.70;;;;;;;1.28;85.31;97139.38;29400;254;63005;-58
2022/02/01 03:48:32;;;;;;;0.60;0.60;;;;;;;1.28;84.96;97139.38;29373;200;63009;-70
2022/02/01 03:49:04;;;;;;;0.60;0.60;;;;;;;1.28;84.98;97139.38;29373;247;63005;-64
2022/02/01 03:49:40;;;;;;;0.62;0.62;;;;;;;1.30;84.94;97134.63;29373;221;63009;-69
2022/02/01 03:50:11;;;;;;;0.60;0.60;;;;;;;1.31;84.93;97141.59;29373;221;63008;-65
2022/02/01 03:50:43;;;;;;;0.60;0.60;;;;;;;1.31;84.76;97136.25;29373;199;63009;-68
2022/02/01 03:51:15;;;;;;;0.60;0.60;;;;;;;1.32;84.88;97137.88;29373;212;63005;-62
2022/02/01 03:51:46;;;;;;;0.70;0.70;;;;;;;1.31;84.66;97136.25;29371;260;64009;-59
2022/02/01 03:52:17;;;;;;;0.60;0.60;;;;;;;1.31;84.50;97140.78;29373;219;63004;-62
2022/02/01 03:52:48;;;;;;;0.70;0.70;;;;;;;1.31;84.58;97130.91;29371;200;64009;-67
2022/02/01 03:53:20;;;;;;;1.85;1.50;;;;;;;1.33;84.83;97134.16;29373;272;63004;-69
2022/02/01 03:53:51;;;;;;;0.73;0.73;;;;;;;1.32;84.41;97137.88;29373;197;63009;-60
2022/02/01 03:54:24;;;;;;;0.60;0.60;;;;;;;1.36;84.42;97142.78;29373;226;63004;-57
2022/02/01 03:54:55;;;;;;;0.70;0.70;;;;;;;1.33;84.11;97136.84;29371;244;64008;-56